createdAt,value
2018-05-17T00:00:21.715Z,12.10
2018-05-17T00:02:49.127Z,12.20
2018-05-17T00:05:17.311Z,12.20
2018-05-17T00:07:44.711Z,12.20
2018-05-17T00:10:12.882Z,12.20
2018-05-17T00:12:41.078Z,12.20
2018-05-17T00:15:08.494Z,12.20
2018-05-17T00:17:35.911Z,12.20
2018-05-17T00:20:04.091Z,12.30
2018-05-17T00:22:31.508Z,12.30
2018-05-17T00:24:58.928Z,12.30
2018-05-17T00:27:26.343Z,12.30
2018-05-17T00:29:53.751Z,12.30
2018-05-17T00:32:21.942Z,12.30
2018-05-17T00:34:49.352Z,12.30
2018-05-17T00:37:17.535Z,12.30
2018-05-17T00:39:44.934Z,12.30
2018-05-17T00:42:13.114Z,12.30
2018-05-17T00:44:40.523Z,12.30
2018-05-17T00:47:07.959Z,12.30
2018-05-17T00:49:35.359Z,12.30
2018-05-17T00:52:02.809Z,12.30
2018-05-17T00:54:30.232Z,12.30
2018-05-17T00:56:57.651Z,12.20
2018-05-17T00:59:25.851Z,12.20
2018-05-17T01:01:53.274Z,12.20
2018-05-17T01:04:20.689Z,12.20
2018-05-17T01:06:48.871Z,12.20
2018-05-17T01:09:16.287Z,12.20
2018-05-17T01:11:44.485Z,12.20
2018-05-17T01:14:11.914Z,12.20
2018-05-17T01:16:39.334Z,12.20
2018-05-17T01:19:07.507Z,12.20
2018-05-17T01:21:34.923Z,12.20
2018-05-17T01:24:03.102Z,12.10
2018-05-17T01:26:31.292Z,12.10
2018-05-17T01:28:58.711Z,12.10
2018-05-17T01:31:26.127Z,12.10
2018-05-17T01:33:54.299Z,12.10
2018-05-17T01:36:22.492Z,12.10
2018-05-17T01:38:49.911Z,12.10
2018-05-17T01:41:17.331Z,12.10
2018-05-17T01:43:45.514Z,12.10
2018-05-17T01:46:12.927Z,12.00
2018-05-17T01:48:41.112Z,12.00
2018-05-17T01:51:08.517Z,12.00
2018-05-17T01:53:36.015Z,12.00
2018-05-17T01:56:03.428Z,12.00
2018-05-17T01:58:31.602Z,12.00
2018-05-17T02:00:59.016Z,12.00
2018-05-17T02:03:27.199Z,12.00
2018-05-17T02:05:54.607Z,12.00
2018-05-17T02:08:22.792Z,12.00
2018-05-17T02:10:50.196Z,12.00
2018-05-17T02:13:17.611Z,12.00
2018-05-17T02:15:45.025Z,12.00
2018-05-17T02:18:12.442Z,12.00
2018-05-17T02:20:40.615Z,12.00
2018-05-17T02:23:08.091Z,12.00
2018-05-17T02:25:35.479Z,12.00
2018-05-17T02:28:03.663Z,12.00
2018-05-17T02:30:31.068Z,12.00
2018-05-17T02:32:58.566Z,12.10
2018-05-17T02:35:25.979Z,12.10
2018-05-17T02:37:53.414Z,12.10
2018-05-17T02:40:21.584Z,12.10
2018-05-17T02:42:48.995Z,12.10
2018-05-17T02:45:16.419Z,12.10
2018-05-17T02:47:43.834Z,12.10
2018-05-17T02:50:11.263Z,12.20
2018-05-17T02:52:38.671Z,12.10
2018-05-17T02:55:06.847Z,12.20
2018-05-17T02:57:34.250Z,12.20
2018-05-17T03:00:01.672Z,12.20
2018-05-17T03:02:29.097Z,12.20
2018-05-17T03:04:56.510Z,12.20
2018-05-17T03:07:23.984Z,12.20
2018-05-17T03:09:51.400Z,12.20
2018-05-17T03:12:18.817Z,12.20
2018-05-17T03:14:46.235Z,12.20
2018-05-17T03:17:13.658Z,12.20
2018-05-17T03:19:41.062Z,12.20
2018-05-17T03:22:08.467Z,12.20
2018-05-17T03:24:35.879Z,12.20
2018-05-17T03:27:03.289Z,12.30
2018-05-17T03:29:30.755Z,12.30
2018-05-17T03:31:58.163Z,12.20
2018-05-17T03:34:25.574Z,12.30
2018-05-17T03:36:52.990Z,12.30
2018-05-17T03:39:20.395Z,12.30
2018-05-17T03:41:47.801Z,12.30
2018-05-17T03:44:15.206Z,12.30
2018-05-17T03:46:42.618Z,12.30
2018-05-17T03:49:10.039Z,12.30
2018-05-17T03:51:38.220Z,12.30
2018-05-17T03:54:05.627Z,12.30
2018-05-17T03:56:33.846Z,12.30
2018-05-17T03:59:01.268Z,12.30
2018-05-17T04:01:40.695Z,12.30
2018-05-17T04:04:20.131Z,12.30
2018-05-17T04:06:48.330Z,12.30
2018-05-17T04:09:16.519Z,12.30
2018-05-17T04:11:43.914Z,12.30
2018-05-17T04:14:11.347Z,12.30
2018-05-17T04:16:38.754Z,12.30
2018-05-17T04:19:06.170Z,12.30
2018-05-17T04:21:33.587Z,12.30
2018-05-17T04:24:00.995Z,12.30
2018-05-17T04:26:28.407Z,12.20
2018-05-17T04:28:55.822Z,12.20
2018-05-17T04:31:24.627Z,12.10
2018-05-17T04:33:52.043Z,12.10
2018-05-17T04:36:20.226Z,12.10
2018-05-17T04:38:47.635Z,12.10
2018-05-17T04:41:15.820Z,12.10
2018-05-17T04:43:43.223Z,12.10
2018-05-17T04:46:10.631Z,12.10
2018-05-17T04:48:38.038Z,12.10
2018-05-17T04:51:05.457Z,12.10
2018-05-17T04:53:33.634Z,12.10
2018-05-17T04:56:01.042Z,12.10
2018-05-17T04:58:29.243Z,12.10
2018-05-17T05:00:56.651Z,12.10
2018-05-17T05:03:24.058Z,12.10
2018-05-17T05:05:51.462Z,12.10
2018-05-17T05:08:18.871Z,12.10
2018-05-17T05:10:47.046Z,12.20
2018-05-17T05:13:15.217Z,12.20
2018-05-17T05:15:42.631Z,12.20
2018-05-17T05:18:10.048Z,12.20
2018-05-17T05:20:37.468Z,12.20
2018-05-17T05:23:04.883Z,12.20
2018-05-17T05:25:32.650Z,12.30
2018-05-17T05:28:00.063Z,12.20
2018-05-17T05:30:28.243Z,12.30
2018-05-17T05:32:55.654Z,12.30
2018-05-17T05:35:23.835Z,12.30
2018-05-17T05:37:51.242Z,12.30
2018-05-17T05:40:18.654Z,12.40
2018-05-17T05:42:46.058Z,12.50
2018-05-17T05:45:13.466Z,12.70
2018-05-17T05:47:40.883Z,12.70
2018-05-17T05:50:08.305Z,12.70
2018-05-17T05:52:35.760Z,12.80
2018-05-17T05:55:03.143Z,12.80
2018-05-17T05:57:31.315Z,12.80
2018-05-17T05:59:58.726Z,12.80
2018-05-17T06:02:26.149Z,12.90
2018-05-17T06:04:53.546Z,12.90
2018-05-17T06:07:21.011Z,12.80
2018-05-17T06:09:48.423Z,12.80
2018-05-17T06:12:15.862Z,12.80
2018-05-17T06:14:44.039Z,12.90
2018-05-17T06:17:11.455Z,12.80
2018-05-17T06:19:39.626Z,12.80
2018-05-17T06:22:07.057Z,12.80
2018-05-17T06:24:35.240Z,12.70
2018-05-17T06:27:02.647Z,12.70
2018-05-17T06:29:30.824Z,12.70
2018-05-17T06:31:58.254Z,12.70
2018-05-17T06:34:25.643Z,12.70
2018-05-17T06:36:53.055Z,12.70
2018-05-17T06:39:20.470Z,12.70
2018-05-17T06:41:48.648Z,12.80
2018-05-17T06:44:16.059Z,12.80
2018-05-17T06:46:43.472Z,12.70
2018-05-17T06:49:10.899Z,12.70
2018-05-17T06:51:38.311Z,12.70
2018-05-17T06:54:05.723Z,12.70
2018-05-17T06:56:33.131Z,12.70
2018-05-17T06:59:00.543Z,12.70
2018-05-17T07:01:27.950Z,12.70
2018-05-17T07:03:56.151Z,12.70
2018-05-17T07:06:23.562Z,12.70
2018-05-17T07:08:51.738Z,12.70
2018-05-17T07:11:19.142Z,12.70
2018-05-17T07:13:46.559Z,12.70
2018-05-17T07:16:13.982Z,12.70
2018-05-17T07:18:41.882Z,12.70
2018-05-17T07:21:09.554Z,12.70
2018-05-17T07:23:36.982Z,12.70
2018-05-17T07:26:05.166Z,12.60
2018-05-17T07:28:32.595Z,12.60
2018-05-17T07:31:00.008Z,12.60
2018-05-17T07:33:27.430Z,12.60
2018-05-17T07:35:54.831Z,12.60
2018-05-17T07:38:22.250Z,12.60
2018-05-17T07:40:50.435Z,12.60
2018-05-17T07:43:17.838Z,12.60
2018-05-17T07:45:46.019Z,12.70
2018-05-17T07:48:13.443Z,12.70
2018-05-17T07:50:41.615Z,12.60
2018-05-17T07:53:09.025Z,12.60
2018-05-17T07:55:36.532Z,12.60
2018-05-17T07:58:03.856Z,12.50
2018-05-17T08:00:31.275Z,12.50
2018-05-17T08:02:59.441Z,12.40
2018-05-17T08:05:27.611Z,12.40
2018-05-17T08:07:55.027Z,12.40
2018-05-17T08:10:23.218Z,12.40
2018-05-17T08:12:50.635Z,12.40
2018-05-17T08:15:18.814Z,12.40
2018-05-17T08:17:46.222Z,12.40
2018-05-17T08:20:14.411Z,12.50
2018-05-17T08:22:41.825Z,12.50
2018-05-17T08:25:09.999Z,12.50
2018-05-17T08:27:37.412Z,12.50
2018-05-17T08:30:04.820Z,12.40
2018-05-17T08:32:32.358Z,12.40
2018-05-17T08:34:59.771Z,12.40
2018-05-17T08:37:27.182Z,12.40
2018-05-17T08:39:54.587Z,12.50
2018-05-17T08:42:22.011Z,12.60
2018-05-17T08:44:49.435Z,12.60
2018-05-17T08:47:16.847Z,12.70
2018-05-17T08:49:44.263Z,12.70
2018-05-17T08:52:11.671Z,12.60
2018-05-17T08:54:39.078Z,12.70
2018-05-17T08:57:07.265Z,12.70
2018-05-17T08:59:34.678Z,12.70
2018-05-17T09:02:02.865Z,12.80
2018-05-17T09:04:30.275Z,12.80
2018-05-17T09:06:58.455Z,13.00
2018-05-17T09:09:25.880Z,13.00
2018-05-17T09:11:54.055Z,13.10
2018-05-17T09:14:21.466Z,13.10
2018-05-17T09:16:48.883Z,13.20
2018-05-17T09:19:16.291Z,13.20
2018-05-17T09:21:43.699Z,13.20
2018-05-17T09:24:11.870Z,13.20
2018-05-17T09:26:39.287Z,13.10
2018-05-17T09:29:06.706Z,13.10
2018-05-17T09:31:34.102Z,13.00
2018-05-17T09:34:01.515Z,13.00
2018-05-17T09:36:28.922Z,13.10
2018-05-17T09:38:56.334Z,13.00
2018-05-17T09:41:23.843Z,13.00
2018-05-17T09:43:51.926Z,13.30
2018-05-17T09:46:19.338Z,13.30
2018-05-17T09:48:47.527Z,13.40
2018-05-17T09:51:14.942Z,13.40
2018-05-17T09:53:43.121Z,13.40
2018-05-17T09:56:10.544Z,13.30
2018-05-17T09:58:38.719Z,13.30
2018-05-17T10:01:06.148Z,13.20
2018-05-17T10:03:33.559Z,13.20
2018-05-17T10:06:00.975Z,13.20
2018-05-17T10:08:28.382Z,13.10
2018-05-17T10:10:56.560Z,13.00
2018-05-17T10:13:23.968Z,13.00
2018-05-17T10:15:52.147Z,12.90
2018-05-17T10:18:19.570Z,12.90
2018-05-17T10:20:47.747Z,12.90
2018-05-17T10:23:15.163Z,12.90
2018-05-17T10:25:42.579Z,13.00
2018-05-17T10:28:09.995Z,13.00
2018-05-17T10:30:37.406Z,12.90
2018-05-17T10:33:04.831Z,13.00
2018-05-17T10:35:33.019Z,13.10
2018-05-17T10:38:00.428Z,13.10
2018-05-17T10:40:28.608Z,13.10
2018-05-17T10:42:56.023Z,13.10
2018-05-17T10:45:23.434Z,13.10
2018-05-17T10:47:50.866Z,13.00
2018-05-17T10:50:18.276Z,13.00
2018-05-17T10:52:45.690Z,13.00
2018-05-17T10:55:13.098Z,13.00
2018-05-17T10:57:40.503Z,13.00
2018-05-17T11:00:07.915Z,13.00
2018-05-17T11:02:36.183Z,13.00
2018-05-17T11:05:03.502Z,13.00
2018-05-17T11:07:30.924Z,13.00
2018-05-17T11:09:58.326Z,13.00
2018-05-17T11:12:25.745Z,13.00
2018-05-17T11:14:54.043Z,13.20
2018-05-17T11:17:21.458Z,13.20
2018-05-17T11:19:49.629Z,13.10
2018-05-17T11:22:17.047Z,13.10
2018-05-17T11:24:45.231Z,13.30
2018-05-17T11:27:12.635Z,13.30
2018-05-17T11:29:40.059Z,13.30
2018-05-17T11:32:07.472Z,13.40
2018-05-17T11:34:34.882Z,13.30
2018-05-17T11:37:03.050Z,13.30
2018-05-17T11:39:30.462Z,13.30
2018-05-17T11:41:57.866Z,13.40
2018-05-17T11:44:25.297Z,13.20
2018-05-17T11:46:52.717Z,13.20
2018-05-17T11:49:20.126Z,13.40
2018-05-17T11:51:48.307Z,13.50
2018-05-17T11:54:16.479Z,13.70
2018-05-17T11:56:43.884Z,13.70
2018-05-17T11:59:12.058Z,13.80
2018-05-17T12:01:39.481Z,13.80
2018-05-17T12:04:06.900Z,13.60
2018-05-17T12:06:34.324Z,13.50
2018-05-17T12:09:01.723Z,13.60
2018-05-17T12:11:29.910Z,13.90
2018-05-17T12:13:57.327Z,13.90
2018-05-17T12:16:24.743Z,14.10
2018-05-17T12:18:52.150Z,14.40
2018-05-17T12:21:19.888Z,14.70
2018-05-17T12:23:46.998Z,15.10
2018-05-17T12:26:14.411Z,15.30
2018-05-17T12:28:41.840Z,15.40
2018-05-17T12:31:09.250Z,15.50
2018-05-17T12:33:37.479Z,15.40
2018-05-17T12:36:04.895Z,15.30
2018-05-17T12:38:32.307Z,15.20
2018-05-17T12:40:59.825Z,14.70
2018-05-17T12:43:27.247Z,14.60
2018-05-17T12:45:54.647Z,14.70
2018-05-17T12:48:22.061Z,14.70
2018-05-17T12:50:49.519Z,15.00
2018-05-17T12:53:16.894Z,15.20
2018-05-17T12:55:45.079Z,15.60
2018-05-17T12:58:12.491Z,15.60
2018-05-17T13:00:40.674Z,15.70
2018-05-17T13:03:08.083Z,15.70
2018-05-17T13:05:35.502Z,15.40
2018-05-17T13:08:02.915Z,15.50
2018-05-17T13:10:30.350Z,15.50
2018-05-17T13:12:57.768Z,15.60
2018-05-17T13:15:25.930Z,15.50
2018-05-17T13:17:53.343Z,15.40
2018-05-17T13:20:20.754Z,15.40
2018-05-17T13:22:48.163Z,15.30
2018-05-17T13:25:15.570Z,15.30
2018-05-17T13:27:43.751Z,16.00
2018-05-17T13:30:11.257Z,16.00
2018-05-17T13:32:38.572Z,15.90
2018-05-17T13:35:06.012Z,15.90
2018-05-17T13:37:33.535Z,16.10
2018-05-17T13:40:00.828Z,15.90
2018-05-17T13:42:28.240Z,15.80
2018-05-17T13:44:55.657Z,15.70
2018-05-17T13:47:23.058Z,15.70
2018-05-17T13:49:51.240Z,15.90
2018-05-17T13:52:18.647Z,15.90
2018-05-17T13:54:46.071Z,16.30
2018-05-17T13:57:13.495Z,16.40
2018-05-17T13:59:40.911Z,16.30
2018-05-17T14:02:08.335Z,16.00
2018-05-17T14:04:36.508Z,15.60
2018-05-17T14:07:04.696Z,15.50
2018-05-17T14:09:32.111Z,15.40
2018-05-17T14:11:59.545Z,15.40
2018-05-17T14:14:26.964Z,15.40
2018-05-17T14:16:54.375Z,15.40
2018-05-17T14:19:21.787Z,15.40
2018-05-17T14:21:49.203Z,15.40
2018-05-17T14:24:17.395Z,15.30
2018-05-17T14:26:44.814Z,15.30
2018-05-17T14:29:12.215Z,15.40
2018-05-17T14:31:39.681Z,15.70
2018-05-17T14:34:07.035Z,15.80
2018-05-17T14:36:34.458Z,15.90
2018-05-17T14:39:01.866Z,15.90
2018-05-17T14:41:29.279Z,16.30
2018-05-17T14:43:56.687Z,16.50
2018-05-17T14:46:24.867Z,16.40
2018-05-17T14:48:52.279Z,16.40
2018-05-17T14:51:20.474Z,16.30
2018-05-17T14:53:47.891Z,16.30
2018-05-17T14:56:16.062Z,16.10
2018-05-17T14:58:43.485Z,16.10
2018-05-17T15:01:11.671Z,16.90
2018-05-17T15:03:39.072Z,16.90
2018-05-17T15:06:06.476Z,17.50
2018-05-17T15:08:33.964Z,17.60
2018-05-17T15:11:01.291Z,17.50
2018-05-17T15:13:28.716Z,17.80
2018-05-17T15:15:56.132Z,17.70
2018-05-17T15:18:23.538Z,17.50
2018-05-17T15:20:51.713Z,17.20
2018-05-17T15:23:19.182Z,17.20
2018-05-17T15:25:47.294Z,17.10
2018-05-17T15:28:14.715Z,17.10
2018-05-17T15:30:42.123Z,17.30
2018-05-17T15:33:09.535Z,17.20
2018-05-17T15:35:36.943Z,17.10
2018-05-17T15:38:04.362Z,17.00
2018-05-17T15:40:31.763Z,17.30
2018-05-17T15:42:58.735Z,17.40
2018-05-17T15:45:25.768Z,17.80
2018-05-17T15:47:53.115Z,17.80
2018-05-17T15:50:20.079Z,17.80
2018-05-17T15:52:48.251Z,17.80
2018-05-17T15:55:15.659Z,17.70
2018-05-17T15:57:43.836Z,16.90
2018-05-17T16:00:12.006Z,16.80
2018-05-17T16:02:39.410Z,16.80
2018-05-17T16:05:06.926Z,16.90
2018-05-17T16:07:34.311Z,16.80
2018-05-17T16:10:01.278Z,17.00
2018-05-17T16:12:28.235Z,17.20
2018-05-17T16:14:55.725Z,17.40
2018-05-17T16:17:23.047Z,17.30
2018-05-17T16:19:50.782Z,17.20
2018-05-17T16:22:18.202Z,17.10
2018-05-17T16:24:45.603Z,16.80
2018-05-17T16:27:13.047Z,16.70
2018-05-17T16:29:40.417Z,16.60
2018-05-17T16:32:07.826Z,16.50
2018-05-17T16:34:35.231Z,16.60
2018-05-17T16:37:02.648Z,16.50
2018-05-17T16:39:30.059Z,16.50
2018-05-17T16:41:57.471Z,16.40
2018-05-17T16:44:25.675Z,16.10
2018-05-17T16:46:53.077Z,16.10
2018-05-17T16:49:21.259Z,16.20
2018-05-17T16:51:48.669Z,16.30
2018-05-17T16:54:16.926Z,16.20
2018-05-17T16:56:44.251Z,16.20
2018-05-17T16:59:12.431Z,16.00
2018-05-17T17:01:40.607Z,16.00
2018-05-17T17:04:08.030Z,16.00
2018-05-17T17:06:36.195Z,15.90
2018-05-17T17:09:05.138Z,16.00
2018-05-17T17:11:32.546Z,16.00
2018-05-17T17:13:59.975Z,15.90
2018-05-17T17:16:27.383Z,15.70
2018-05-17T17:18:54.796Z,15.60
2018-05-17T17:21:22.202Z,15.50
2018-05-17T17:23:49.631Z,15.50
2018-05-17T17:26:17.024Z,15.50
2018-05-17T17:28:44.431Z,15.50
2018-05-17T17:31:11.851Z,15.50
2018-05-17T17:33:39.264Z,15.40
2018-05-17T17:36:06.684Z,15.40
2018-05-17T17:38:34.090Z,15.30
2018-05-17T17:41:01.500Z,15.40
2018-05-17T17:43:29.671Z,15.30
2018-05-17T17:45:57.087Z,15.30
2018-05-17T17:48:25.263Z,15.30
2018-05-17T17:50:53.439Z,15.20
2018-05-17T17:53:20.843Z,15.10
2018-05-17T17:55:48.259Z,15.10
2018-05-17T17:58:15.724Z,15.00
2018-05-17T18:00:43.083Z,15.00
2018-05-17T18:03:11.268Z,14.80
2018-05-17T18:05:38.683Z,14.80
2018-05-17T18:08:06.867Z,14.70
2018-05-17T18:10:34.283Z,14.70
2018-05-17T18:13:02.458Z,14.60
2018-05-17T18:15:29.874Z,14.60
2018-05-17T18:17:58.051Z,14.50
2018-05-17T18:20:25.458Z,14.50
2018-05-17T18:22:52.878Z,14.50
2018-05-17T18:25:20.282Z,14.50
2018-05-17T18:27:47.703Z,14.50
2018-05-17T18:30:15.879Z,14.50
2018-05-17T18:32:43.415Z,14.50
2018-05-17T18:35:11.494Z,14.50
2018-05-17T18:37:38.910Z,14.50
2018-05-17T18:40:07.079Z,14.40
2018-05-17T18:42:34.495Z,14.40
2018-05-17T18:45:02.667Z,14.30
2018-05-17T18:47:30.851Z,14.30
2018-05-17T18:49:58.256Z,14.20
2018-05-17T18:52:26.441Z,14.10
2018-05-17T18:54:53.847Z,14.00
2018-05-17T18:57:21.265Z,14.00
2018-05-17T18:59:48.675Z,14.00
2018-05-17T19:02:16.184Z,13.90
2018-05-17T19:04:44.274Z,13.80
2018-05-17T19:07:11.683Z,13.70
2018-05-17T19:09:39.855Z,13.60
2018-05-17T19:12:07.266Z,13.60
2018-05-17T19:14:34.683Z,13.60
2018-05-17T19:17:02.098Z,13.50
2018-05-17T19:19:29.508Z,13.50
2018-05-17T19:21:57.695Z,13.50
2018-05-17T19:24:25.112Z,13.50
2018-05-17T19:26:53.292Z,13.50
2018-05-17T19:29:20.724Z,13.50
2018-05-17T19:31:48.135Z,13.40
2018-05-17T19:34:15.551Z,13.40
2018-05-17T19:36:42.966Z,13.40
2018-05-17T19:39:10.380Z,13.30
2018-05-17T19:41:38.593Z,13.10
2018-05-17T19:44:05.982Z,13.10
2018-05-17T19:46:34.154Z,13.10
2018-05-17T19:49:01.571Z,13.10
2018-05-17T19:51:29.745Z,13.00
2018-05-17T19:53:57.320Z,13.00
2018-05-17T19:56:24.731Z,13.00
2018-05-17T19:58:52.137Z,12.90
2018-05-17T20:01:19.564Z,12.90
2018-05-17T20:03:46.978Z,12.90
2018-05-17T20:06:14.390Z,12.90
2018-05-17T20:08:41.865Z,12.90
2018-05-17T20:11:10.011Z,12.80
2018-05-17T20:13:37.488Z,12.80
2018-05-17T20:16:05.846Z,12.80
2018-05-17T20:18:34.589Z,12.80
2018-05-17T20:21:02.719Z,12.70
2018-05-17T20:23:30.891Z,12.60
2018-05-17T20:25:58.303Z,12.60
2018-05-17T20:28:25.711Z,12.60
2018-05-17T20:30:53.128Z,12.50
2018-05-17T20:33:20.554Z,12.50
2018-05-17T20:35:47.977Z,12.40
2018-05-17T20:38:15.393Z,12.40
2018-05-17T20:40:42.816Z,12.30
2018-05-17T20:43:10.247Z,12.20
2018-05-17T20:45:37.675Z,12.20
2018-05-17T20:48:05.128Z,12.20
2018-05-17T20:50:32.547Z,12.20
2018-05-17T20:52:59.971Z,12.20
2018-05-17T20:55:28.169Z,12.20
2018-05-17T20:57:55.669Z,12.20
2018-05-17T21:00:23.847Z,12.10
2018-05-17T21:02:51.252Z,12.10
2018-05-17T21:05:18.676Z,12.10
2018-05-17T21:07:46.085Z,12.00
2018-05-17T21:10:13.500Z,12.00
2018-05-17T21:12:41.673Z,12.00
2018-05-17T21:15:09.093Z,12.00
2018-05-17T21:17:37.621Z,11.90
2018-05-17T21:20:05.198Z,11.90
2018-05-17T21:22:32.578Z,11.80
2018-05-17T21:24:59.991Z,11.80
2018-05-17T21:27:28.170Z,11.80
2018-05-17T21:29:55.583Z,11.70
2018-05-17T21:32:23.756Z,11.70
2018-05-17T21:34:51.938Z,11.70
2018-05-17T21:37:19.341Z,11.60
2018-05-17T21:39:47.520Z,11.70
2018-05-17T21:42:14.943Z,11.70
2018-05-17T21:44:43.126Z,11.80
2018-05-17T21:47:10.544Z,11.70
2018-05-17T21:49:38.747Z,11.70
2018-05-17T21:52:06.169Z,11.70
2018-05-17T21:54:33.630Z,11.70
2018-05-17T21:57:01.043Z,11.70
2018-05-17T21:59:28.451Z,11.70
2018-05-17T22:01:55.866Z,11.70
2018-05-17T22:04:23.281Z,11.60
2018-05-17T22:06:50.735Z,11.60
2018-05-17T22:09:18.599Z,11.60
2018-05-17T22:11:45.999Z,11.50
2018-05-17T22:14:14.174Z,11.50
2018-05-17T22:16:41.599Z,11.40
2018-05-17T22:19:08.998Z,11.50
2018-05-17T22:21:36.415Z,11.40
2018-05-17T22:24:03.827Z,11.50
2018-05-17T22:26:31.245Z,11.50
2018-05-17T22:28:59.427Z,11.50
2018-05-17T22:31:26.839Z,11.50
2018-05-17T22:33:54.252Z,11.50
2018-05-17T22:36:21.658Z,11.50
2018-05-17T22:38:49.071Z,11.40
2018-05-17T22:41:17.243Z,11.40
2018-05-17T22:43:44.646Z,11.40
2018-05-17T22:46:12.065Z,11.40
2018-05-17T22:48:39.471Z,11.40
2018-05-17T22:51:06.894Z,11.30
2018-05-17T22:53:34.302Z,11.20
2018-05-17T22:56:01.714Z,11.20
2018-05-17T22:58:32.522Z,11.10
2018-05-17T23:00:59.486Z,11.10
2018-05-17T23:03:26.897Z,11.10
2018-05-17T23:05:53.859Z,11.00
2018-05-17T23:08:20.826Z,11.00
2018-05-17T23:10:47.786Z,11.00
2018-05-17T23:13:14.758Z,11.00
2018-05-17T23:15:41.708Z,11.00
2018-05-17T23:18:08.670Z,11.00
2018-05-17T23:20:36.090Z,10.90
2018-05-17T23:23:04.280Z,10.80
2018-05-17T23:25:31.683Z,10.80
2018-05-17T23:27:59.098Z,10.80
2018-05-17T23:30:26.054Z,10.70
2018-05-17T23:32:53.015Z,10.70
2018-05-17T23:35:19.976Z,10.70
2018-05-17T23:37:46.948Z,10.60
2018-05-17T23:40:19.701Z,10.60
2018-05-17T23:42:46.662Z,10.60
2018-05-17T23:45:13.627Z,10.60
2018-05-17T23:47:40.594Z,10.60
2018-05-17T23:50:07.557Z,10.60
2018-05-17T23:52:35.295Z,10.60
2018-05-17T23:55:02.259Z,10.60
2018-05-17T23:57:29.214Z,10.50
2018-05-17T23:59:56.178Z,10.40
